sensor_id;sensor_type;location;lat;lon;timestamp;P1;durP1;ratioP1;P2;durP2;ratioP2
27225;SDS011;14732;51.074;3.788;2024-01-30T00:01:22;9.02;;;5.35;;
27225;SDS011;14732;51.074;3.788;2024-01-30T00:03:47;8.80;;;5.60;;
27225;SDS011;14732;51.074;3.788;2024-01-30T00:06:13;10.95;;;5.47;;
27225;SDS011;14732;51.074;3.788;2024-01-30T00:08:39;9.48;;;5.45;;
27225;SDS011;14732;51.074;3.788;2024-01-30T00:11:04;8.20;;;5.60;;
27225;SDS011;14732;51.074;3.788;2024-01-30T00:13:30;8.20;;;5.38;;
27225;SDS011;14732;51.074;3.788;2024-01-30T00:15:56;9.52;;;5.97;;
27225;SDS011;14732;51.074;3.788;2024-01-30T00:18:21;8.60;;;5.75;;
27225;SDS011;14732;51.074;3.788;2024-01-30T00:20:47;8.82;;;5.43;;
27225;SDS011;14732;51.074;3.788;2024-01-30T00:23:13;8.45;;;5.50;;
27225;SDS011;14732;51.074;3.788;2024-01-30T00:25:38;9.52;;;5.53;;
27225;SDS011;14732;51.074;3.788;2024-01-30T00:28:04;6.75;;;5.60;;
27225;SDS011;14732;51.074;3.788;2024-01-30T00:30:30;9.52;;;5.97;;
27225;SDS011;14732;51.074;3.788;2024-01-30T00:32:56;7.13;;;5.32;;
27225;SDS011;14732;51.074;3.788;2024-01-30T00:35:21;10.60;;;5.72;;
27225;SDS011;14732;51.074;3.788;2024-01-30T00:37:47;8.00;;;5.88;;
27225;SDS011;14732;51.074;3.788;2024-01-30T00:40:13;8.77;;;5.38;;
27225;SDS011;14732;51.074;3.788;2024-01-30T00:42:43;9.57;;;5.63;;
27225;SDS011;14732;51.074;3.788;2024-01-30T00:45:16;8.13;;;5.85;;
27225;SDS011;14732;51.074;3.788;2024-01-30T00:47:42;8.07;;;5.93;;
27225;SDS011;14732;51.074;3.788;2024-01-30T00:50:08;10.98;;;5.93;;
27225;SDS011;14732;51.074;3.788;2024-01-30T00:52:34;9.02;;;5.63;;
27225;SDS011;14732;51.074;3.788;2024-01-30T00:55:00;9.88;;;6.28;;
27225;SDS011;14732;51.074;3.788;2024-01-30T00:57:26;11.45;;;5.68;;
27225;SDS011;14732;51.074;3.788;2024-01-30T00:59:52;9.25;;;5.43;;
27225;SDS011;14732;51.074;3.788;2024-01-30T01:02:17;8.38;;;5.65;;
27225;SDS011;14732;51.074;3.788;2024-01-30T01:04:44;10.25;;;6.10;;
27225;SDS011;14732;51.074;3.788;2024-01-30T01:07:10;11.15;;;5.68;;
27225;SDS011;14732;51.074;3.788;2024-01-30T01:09:36;11.45;;;6.10;;
27225;SDS011;14732;51.074;3.788;2024-01-30T01:12:02;10.35;;;6.00;;
27225;SDS011;14732;51.074;3.788;2024-01-30T01:14:28;10.63;;;5.82;;
27225;SDS011;14732;51.074;3.788;2024-01-30T01:16:54;11.45;;;5.85;;
27225;SDS011;14732;51.074;3.788;2024-01-30T01:19:20;7.97;;;5.95;;
27225;SDS011;14732;51.074;3.788;2024-01-30T01:21:46;7.60;;;5.63;;
27225;SDS011;14732;51.074;3.788;2024-01-30T01:24:12;8.75;;;5.80;;
27225;SDS011;14732;51.074;3.788;2024-01-30T01:26:38;9.50;;;6.03;;
27225;SDS011;14732;51.074;3.788;2024-01-30T01:29:03;9.63;;;5.78;;
27225;SDS011;14732;51.074;3.788;2024-01-30T01:31:35;8.18;;;5.45;;
27225;SDS011;14732;51.074;3.788;2024-01-30T01:34:05;6.78;;;5.38;;
27225;SDS011;14732;51.074;3.788;2024-01-30T01:36:31;8.10;;;5.43;;
27225;SDS011;14732;51.074;3.788;2024-01-30T01:38:56;8.60;;;5.80;;
27225;SDS011;14732;51.074;3.788;2024-01-30T01:41:22;10.18;;;5.63;;
27225;SDS011;14732;51.074;3.788;2024-01-30T01:43:48;9.45;;;5.88;;
27225;SDS011;14732;51.074;3.788;2024-01-30T01:46:13;10.43;;;5.90;;
27225;SDS011;14732;51.074;3.788;2024-01-30T01:48:40;9.80;;;5.57;;
27225;SDS011;14732;51.074;3.788;2024-01-30T01:51:07;10.38;;;5.63;;
27225;SDS011;14732;51.074;3.788;2024-01-30T01:53:34;9.05;;;5.88;;
27225;SDS011;14732;51.074;3.788;2024-01-30T01:56:00;8.15;;;5.82;;
27225;SDS011;14732;51.074;3.788;2024-01-30T01:58:26;8.05;;;5.38;;
27225;SDS011;14732;51.074;3.788;2024-01-30T02:00:54;10.40;;;5.53;;
27225;SDS011;14732;51.074;3.788;2024-01-30T02:03:21;9.50;;;6.18;;
27225;SDS011;14732;51.074;3.788;2024-01-30T02:05:46;10.10;;;5.80;;
27225;SDS011;14732;51.074;3.788;2024-01-30T02:08:13;9.35;;;6.10;;
27225;SDS011;14732;51.074;3.788;2024-01-30T02:10:38;10.38;;;5.55;;
27225;SDS011;14732;51.074;3.788;2024-01-30T02:13:04;9.13;;;5.90;;
27225;SDS011;14732;51.074;3.788;2024-01-30T02:15:30;14.10;;;6.15;;
27225;SDS011;14732;51.074;3.788;2024-01-30T02:17:55;10.30;;;5.90;;
27225;SDS011;14732;51.074;3.788;2024-01-30T02:20:21;11.07;;;6.30;;
27225;SDS011;14732;51.074;3.788;2024-01-30T02:22:49;9.48;;;6.00;;
27225;SDS011;14732;51.074;3.788;2024-01-30T02:25:17;10.40;;;6.00;;
27225;SDS011;14732;51.074;3.788;2024-01-30T02:27:43;9.38;;;5.75;;
27225;SDS011;14732;51.074;3.788;2024-01-30T02:30:09;9.88;;;6.47;;
27225;SDS011;14732;51.074;3.788;2024-01-30T02:32:35;8.13;;;5.53;;
27225;SDS011;14732;51.074;3.788;2024-01-30T02:35:00;9.27;;;5.75;;
27225;SDS011;14732;51.074;3.788;2024-01-30T02:37:26;11.48;;;6.35;;
27225;SDS011;14732;51.074;3.788;2024-01-30T02:39:52;8.88;;;5.63;;
27225;SDS011;14732;51.074;3.788;2024-01-30T02:42:17;8.73;;;5.80;;
27225;SDS011;14732;51.074;3.788;2024-01-30T02:44:43;9.02;;;5.45;;
27225;SDS011;14732;51.074;3.788;2024-01-30T02:47:08;8.60;;;5.82;;
27225;SDS011;14732;51.074;3.788;2024-01-30T02:49:34;10.95;;;6.10;;
27225;SDS011;14732;51.074;3.788;2024-01-30T02:52:00;11.68;;;5.80;;
27225;SDS011;14732;51.074;3.788;2024-01-30T02:54:25;10.75;;;6.35;;
27225;SDS011;14732;51.074;3.788;2024-01-30T02:56:51;9.75;;;5.78;;
27225;SDS011;14732;51.074;3.788;2024-01-30T02:59:16;10.07;;;6.22;;
27225;SDS011;14732;51.074;3.788;2024-01-30T03:01:45;10.63;;;6.13;;
27225;SDS011;14732;51.074;3.788;2024-01-30T03:04:11;11.02;;;6.15;;
27225;SDS011;14732;51.074;3.788;2024-01-30T03:06:37;12.20;;;6.43;;
27225;SDS011;14732;51.074;3.788;2024-01-30T03:09:03;9.75;;;6.20;;
27225;SDS011;14732;51.074;3.788;2024-01-30T03:11:29;11.63;;;6.45;;
27225;SDS011;14732;51.074;3.788;2024-01-30T03:13:55;9.80;;;6.53;;
27225;SDS011;14732;51.074;3.788;2024-01-30T03:16:21;10.57;;;6.10;;
27225;SDS011;14732;51.074;3.788;2024-01-30T03:18:47;10.20;;;5.95;;
27225;SDS011;14732;51.074;3.788;2024-01-30T03:21:13;9.85;;;5.85;;
27225;SDS011;14732;51.074;3.788;2024-01-30T03:23:39;12.95;;;6.55;;
27225;SDS011;14732;51.074;3.788;2024-01-30T03:26:05;10.40;;;6.30;;
27225;SDS011;14732;51.074;3.788;2024-01-30T03:28:31;11.27;;;6.07;;
27225;SDS011;14732;51.074;3.788;2024-01-30T03:30:57;8.52;;;6.07;;
27225;SDS011;14732;51.074;3.788;2024-01-30T03:33:22;9.65;;;6.13;;
27225;SDS011;14732;51.074;3.788;2024-01-30T03:35:48;9.95;;;6.15;;
27225;SDS011;14732;51.074;3.788;2024-01-30T03:38:14;8.40;;;5.82;;
27225;SDS011;14732;51.074;3.788;2024-01-30T03:40:39;11.65;;;5.93;;
27225;SDS011;14732;51.074;3.788;2024-01-30T03:43:05;10.77;;;6.57;;
27225;SDS011;14732;51.074;3.788;2024-01-30T03:45:31;9.65;;;6.07;;
27225;SDS011;14732;51.074;3.788;2024-01-30T03:47:56;9.95;;;6.07;;
27225;SDS011;14732;51.074;3.788;2024-01-30T03:50:22;9.23;;;6.07;;
27225;SDS011;14732;51.074;3.788;2024-01-30T03:52:47;11.65;;;6.70;;
27225;SDS011;14732;51.074;3.788;2024-01-30T03:55:13;9.60;;;6.20;;
27225;SDS011;14732;51.074;3.788;2024-01-30T03:57:39;9.93;;;6.50;;
27225;SDS011;14732;51.074;3.788;2024-01-30T04:00:05;7.80;;;6.07;;
27225;SDS011;14732;51.074;3.788;2024-01-30T04:02:31;11.65;;;7.10;;
27225;SDS011;14732;51.074;3.788;2024-01-30T04:04:56;10.73;;;6.30;;
27225;SDS011;14732;51.074;3.788;2024-01-30T04:07:22;13.10;;;6.78;;
27225;SDS011;14732;51.074;3.788;2024-01-30T04:09:47;10.50;;;6.82;;
27225;SDS011;14732;51.074;3.788;2024-01-30T04:12:13;12.98;;;6.60;;
27225;SDS011;14732;51.074;3.788;2024-01-30T04:14:39;10.68;;;6.80;;
27225;SDS011;14732;51.074;3.788;2024-01-30T04:17:04;14.30;;;7.40;;
27225;SDS011;14732;51.074;3.788;2024-01-30T04:19:30;11.98;;;6.60;;
27225;SDS011;14732;51.074;3.788;2024-01-30T04:21:55;9.93;;;6.50;;
27225;SDS011;14732;51.074;3.788;2024-01-30T04:24:21;16.55;;;7.40;;
27225;SDS011;14732;51.074;3.788;2024-01-30T04:26:47;12.52;;;6.82;;
27225;SDS011;14732;51.074;3.788;2024-01-30T04:29:12;13.88;;;7.40;;
27225;SDS011;14732;51.074;3.788;2024-01-30T04:31:38;13.68;;;6.93;;
27225;SDS011;14732;51.074;3.788;2024-01-30T04:34:04;11.38;;;6.78;;
27225;SDS011;14732;51.074;3.788;2024-01-30T04:36:29;8.85;;;6.55;;
27225;SDS011;14732;51.074;3.788;2024-01-30T04:38:55;12.70;;;7.00;;
27225;SDS011;14732;51.074;3.788;2024-01-30T04:41:20;11.65;;;7.10;;
27225;SDS011;14732;51.074;3.788;2024-01-30T04:43:46;10.90;;;6.95;;
27225;SDS011;14732;51.074;3.788;2024-01-30T04:46:11;11.75;;;7.43;;
27225;SDS011;14732;51.074;3.788;2024-01-30T04:48:37;12.13;;;7.60;;
27225;SDS011;14732;51.074;3.788;2024-01-30T04:51:03;10.25;;;6.68;;
27225;SDS011;14732;51.074;3.788;2024-01-30T04:53:30;9.50;;;6.65;;
27225;SDS011;14732;51.074;3.788;2024-01-30T04:55:56;12.15;;;7.30;;
27225;SDS011;14732;51.074;3.788;2024-01-30T04:58:21;12.65;;;6.82;;
27225;SDS011;14732;51.074;3.788;2024-01-30T05:00:47;12.48;;;7.10;;
27225;SDS011;14732;51.074;3.788;2024-01-30T05:03:16;12.18;;;6.68;;
27225;SDS011;14732;51.074;3.788;2024-01-30T05:05:44;11.00;;;6.63;;
27225;SDS011;14732;51.074;3.788;2024-01-30T05:08:09;12.38;;;6.43;;
27225;SDS011;14732;51.074;3.788;2024-01-30T05:10:35;10.63;;;7.07;;
27225;SDS011;14732;51.074;3.788;2024-01-30T05:13:01;10.45;;;6.80;;
27225;SDS011;14732;51.074;3.788;2024-01-30T05:15:26;10.73;;;6.60;;
27225;SDS011;14732;51.074;3.788;2024-01-30T05:17:52;15.57;;;6.43;;
27225;SDS011;14732;51.074;3.788;2024-01-30T05:20:17;12.10;;;6.82;;
27225;SDS011;14732;51.074;3.788;2024-01-30T05:22:45;14.40;;;6.53;;
27225;SDS011;14732;51.074;3.788;2024-01-30T05:25:11;11.82;;;6.82;;
27225;SDS011;14732;51.074;3.788;2024-01-30T05:27:40;12.75;;;6.90;;
27225;SDS011;14732;51.074;3.788;2024-01-30T05:30:06;11.30;;;6.72;;
27225;SDS011;14732;51.074;3.788;2024-01-30T05:32:32;12.07;;;6.32;;
27225;SDS011;14732;51.074;3.788;2024-01-30T05:34:58;10.90;;;6.45;;
27225;SDS011;14732;51.074;3.788;2024-01-30T05:37:23;14.20;;;6.80;;
27225;SDS011;14732;51.074;3.788;2024-01-30T05:39:49;11.27;;;6.70;;
27225;SDS011;14732;51.074;3.788;2024-01-30T05:42:15;10.48;;;6.25;;
27225;SDS011;14732;51.074;3.788;2024-01-30T05:44:41;12.32;;;6.25;;
27225;SDS011;14732;51.074;3.788;2024-01-30T05:47:07;10.75;;;6.45;;
27225;SDS011;14732;51.074;3.788;2024-01-30T05:49:33;14.52;;;7.00;;
27225;SDS011;14732;51.074;3.788;2024-01-30T05:51:59;15.00;;;6.90;;
27225;SDS011;14732;51.074;3.788;2024-01-30T05:54:27;13.55;;;7.15;;
27225;SDS011;14732;51.074;3.788;2024-01-30T05:56:52;14.73;;;7.03;;
27225;SDS011;14732;51.074;3.788;2024-01-30T05:59:18;13.30;;;6.53;;
27225;SDS011;14732;51.074;3.788;2024-01-30T06:01:47;12.60;;;7.07;;
27225;SDS011;14732;51.074;3.788;2024-01-30T06:04:13;10.50;;;6.15;;
27225;SDS011;14732;51.074;3.788;2024-01-30T06:06:39;9.52;;;6.05;;
27225;SDS011;14732;51.074;3.788;2024-01-30T06:09:05;11.88;;;6.47;;
27225;SDS011;14732;51.074;3.788;2024-01-30T06:11:31;12.75;;;6.85;;
27225;SDS011;14732;51.074;3.788;2024-01-30T06:13:57;10.75;;;6.68;;
27225;SDS011;14732;51.074;3.788;2024-01-30T06:16:22;11.25;;;6.47;;
27225;SDS011;14732;51.074;3.788;2024-01-30T06:18:48;10.70;;;6.82;;
27225;SDS011;14732;51.074;3.788;2024-01-30T06:21:14;11.38;;;6.65;;
27225;SDS011;14732;51.074;3.788;2024-01-30T06:23:39;14.38;;;7.05;;
27225;SDS011;14732;51.074;3.788;2024-01-30T06:26:06;13.18;;;6.65;;
27225;SDS011;14732;51.074;3.788;2024-01-30T06:28:32;10.75;;;6.82;;
27225;SDS011;14732;51.074;3.788;2024-01-30T06:30:57;11.57;;;6.50;;
27225;SDS011;14732;51.074;3.788;2024-01-30T06:33:23;10.57;;;6.50;;
27225;SDS011;14732;51.074;3.788;2024-01-30T06:35:48;12.73;;;6.80;;
27225;SDS011;14732;51.074;3.788;2024-01-30T06:38:14;12.82;;;6.25;;
27225;SDS011;14732;51.074;3.788;2024-01-30T06:40:41;12.57;;;6.35;;
27225;SDS011;14732;51.074;3.788;2024-01-30T06:43:07;11.93;;;6.75;;
27225;SDS011;14732;51.074;3.788;2024-01-30T06:45:33;16.73;;;6.72;;
27225;SDS011;14732;51.074;3.788;2024-01-30T06:47:59;13.50;;;6.60;;
27225;SDS011;14732;51.074;3.788;2024-01-30T06:50:25;9.20;;;6.43;;
27225;SDS011;14732;51.074;3.788;2024-01-30T06:52:51;12.10;;;6.80;;
27225;SDS011;14732;51.074;3.788;2024-01-30T06:55:17;14.82;;;6.78;;
27225;SDS011;14732;51.074;3.788;2024-01-30T06:57:43;11.00;;;6.30;;
27225;SDS011;14732;51.074;3.788;2024-01-30T07:00:09;9.32;;;6.25;;
27225;SDS011;14732;51.074;3.788;2024-01-30T07:02:35;12.23;;;6.63;;
27225;SDS011;14732;51.074;3.788;2024-01-30T07:05:01;12.75;;;7.00;;
27225;SDS011;14732;51.074;3.788;2024-01-30T07:07:28;13.07;;;6.07;;
27225;SDS011;14732;51.074;3.788;2024-01-30T07:09:54;10.35;;;6.90;;
27225;SDS011;14732;51.074;3.788;2024-01-30T07:12:22;8.93;;;6.32;;
27225;SDS011;14732;51.074;3.788;2024-01-30T07:14:49;10.35;;;5.90;;
27225;SDS011;14732;51.074;3.788;2024-01-30T07:17:15;9.00;;;6.30;;
27225;SDS011;14732;51.074;3.788;2024-01-30T07:19:41;11.88;;;6.90;;
27225;SDS011;14732;51.074;3.788;2024-01-30T07:22:07;11.25;;;6.65;;
27225;SDS011;14732;51.074;3.788;2024-01-30T07:24:33;12.75;;;6.75;;
27225;SDS011;14732;51.074;3.788;2024-01-30T07:26:59;12.38;;;6.75;;
27225;SDS011;14732;51.074;3.788;2024-01-30T07:29:24;13.23;;;7.00;;
27225;SDS011;14732;51.074;3.788;2024-01-30T07:31:50;13.52;;;6.72;;
27225;SDS011;14732;51.074;3.788;2024-01-30T07:34:16;12.68;;;6.47;;
27225;SDS011;14732;51.074;3.788;2024-01-30T07:36:41;12.20;;;6.57;;
27225;SDS011;14732;51.074;3.788;2024-01-30T07:39:07;15.27;;;7.15;;
27225;SDS011;14732;51.074;3.788;2024-01-30T07:41:33;13.07;;;7.13;;
27225;SDS011;14732;51.074;3.788;2024-01-30T07:43:58;14.05;;;7.18;;
27225;SDS011;14732;51.074;3.788;2024-01-30T07:46:24;15.60;;;7.25;;
27225;SDS011;14732;51.074;3.788;2024-01-30T07:48:53;10.68;;;7.28;;
27225;SDS011;14732;51.074;3.788;2024-01-30T07:51:18;14.40;;;7.00;;
27225;SDS011;14732;51.074;3.788;2024-01-30T07:53:51;13.10;;;6.55;;
27225;SDS011;14732;51.074;3.788;2024-01-30T07:56:16;12.20;;;7.38;;
27225;SDS011;14732;51.074;3.788;2024-01-30T07:58:42;11.85;;;6.85;;
27225;SDS011;14732;51.074;3.788;2024-01-30T08:01:08;13.50;;;6.90;;
27225;SDS011;14732;51.074;3.788;2024-01-30T08:03:33;18.08;;;7.63;;
27225;SDS011;14732;51.074;3.788;2024-01-30T08:05:59;10.50;;;7.32;;
27225;SDS011;14732;51.074;3.788;2024-01-30T08:08:25;15.45;;;7.20;;
27225;SDS011;14732;51.074;3.788;2024-01-30T08:10:52;16.48;;;7.50;;
27225;SDS011;14732;51.074;3.788;2024-01-30T08:13:17;15.73;;;7.43;;
27225;SDS011;14732;51.074;3.788;2024-01-30T08:15:43;18.73;;;7.70;;
27225;SDS011;14732;51.074;3.788;2024-01-30T08:18:08;14.75;;;7.70;;
27225;SDS011;14732;51.074;3.788;2024-01-30T08:20:34;16.02;;;7.60;;
27225;SDS011;14732;51.074;3.788;2024-01-30T08:23:00;14.30;;;7.57;;
27225;SDS011;14732;51.074;3.788;2024-01-30T08:25:26;14.55;;;7.50;;
27225;SDS011;14732;51.074;3.788;2024-01-30T08:27:51;18.88;;;8.70;;
27225;SDS011;14732;51.074;3.788;2024-01-30T08:30:17;11.18;;;7.80;;
27225;SDS011;14732;51.074;3.788;2024-01-30T08:32:42;14.52;;;8.20;;
27225;SDS011;14732;51.074;3.788;2024-01-30T08:35:08;17.52;;;8.18;;
27225;SDS011;14732;51.074;3.788;2024-01-30T08:37:34;14.18;;;8.00;;
27225;SDS011;14732;51.074;3.788;2024-01-30T08:39:59;11.98;;;7.72;;
27225;SDS011;14732;51.074;3.788;2024-01-30T08:42:27;19.95;;;8.30;;
27225;SDS011;14732;51.074;3.788;2024-01-30T08:44:52;12.20;;;7.50;;
27225;SDS011;14732;51.074;3.788;2024-01-30T08:47:19;16.20;;;7.85;;
27225;SDS011;14732;51.074;3.788;2024-01-30T08:49:44;15.30;;;7.82;;
27225;SDS011;14732;51.074;3.788;2024-01-30T08:52:10;15.90;;;8.25;;
27225;SDS011;14732;51.074;3.788;2024-01-30T08:54:36;13.88;;;8.10;;
27225;SDS011;14732;51.074;3.788;2024-01-30T08:57:02;12.48;;;8.40;;
27225;SDS011;14732;51.074;3.788;2024-01-30T08:59:29;21.77;;;8.27;;
27225;SDS011;14732;51.074;3.788;2024-01-30T09:01:55;17.23;;;7.70;;
27225;SDS011;14732;51.074;3.788;2024-01-30T09:04:22;12.68;;;6.47;;
27225;SDS011;14732;51.074;3.788;2024-01-30T09:06:48;11.52;;;6.20;;
27225;SDS011;14732;51.074;3.788;2024-01-30T09:09:14;12.10;;;6.40;;
27225;SDS011;14732;51.074;3.788;2024-01-30T09:11:40;9.88;;;5.68;;
27225;SDS011;14732;51.074;3.788;2024-01-30T09:14:05;13.85;;;5.57;;
27225;SDS011;14732;51.074;3.788;2024-01-30T09:16:31;16.00;;;5.97;;
27225;SDS011;14732;51.074;3.788;2024-01-30T09:18:57;15.35;;;5.82;;
27225;SDS011;14732;51.074;3.788;2024-01-30T09:21:23;14.52;;;5.93;;
27225;SDS011;14732;51.074;3.788;2024-01-30T09:23:48;11.70;;;5.50;;
27225;SDS011;14732;51.074;3.788;2024-01-30T09:26:14;8.93;;;4.75;;
27225;SDS011;14732;51.074;3.788;2024-01-30T09:28:40;13.13;;;4.40;;
27225;SDS011;14732;51.074;3.788;2024-01-30T09:31:11;11.45;;;3.92;;
27225;SDS011;14732;51.074;3.788;2024-01-30T09:33:37;9.25;;;3.03;;
27225;SDS011;14732;51.074;3.788;2024-01-30T09:36:03;7.43;;;2.42;;
27225;SDS011;14732;51.074;3.788;2024-01-30T09:38:30;8.02;;;2.50;;
27225;SDS011;14732;51.074;3.788;2024-01-30T09:40:56;8.13;;;2.50;;
27225;SDS011;14732;51.074;3.788;2024-01-30T09:43:26;6.38;;;1.98;;
27225;SDS011;14732;51.074;3.788;2024-01-30T09:45:59;8.73;;;2.08;;
27225;SDS011;14732;51.074;3.788;2024-01-30T09:48:27;6.47;;;1.50;;
27225;SDS011;14732;51.074;3.788;2024-01-30T09:50:55;6.05;;;1.50;;
27225;SDS011;14732;51.074;3.788;2024-01-30T09:53:22;2.95;;;1.30;;
27225;SDS011;14732;51.074;3.788;2024-01-30T09:55:49;6.70;;;1.48;;
27225;SDS011;14732;51.074;3.788;2024-01-30T09:58:18;4.07;;;1.02;;
27225;SDS011;14732;51.074;3.788;2024-01-30T10:00:44;5.03;;;1.23;;
27225;SDS011;14732;51.074;3.788;2024-01-30T10:03:10;6.05;;;1.65;;
27225;SDS011;14732;51.074;3.788;2024-01-30T10:05:36;4.25;;;1.10;;
27225;SDS011;14732;51.074;3.788;2024-01-30T10:08:08;4.95;;;1.20;;
27225;SDS011;14732;51.074;3.788;2024-01-30T10:10:34;5.93;;;1.23;;
27225;SDS011;14732;51.074;3.788;2024-01-30T10:13:00;2.90;;;0.90;;
27225;SDS011;14732;51.074;3.788;2024-01-30T10:15:27;2.60;;;0.95;;
27225;SDS011;14732;51.074;3.788;2024-01-30T10:17:53;3.60;;;0.90;;
27225;SDS011;14732;51.074;3.788;2024-01-30T10:20:19;1.58;;;0.60;;
27225;SDS011;14732;51.074;3.788;2024-01-30T10:22:47;2.38;;;0.93;;
27225;SDS011;14732;51.074;3.788;2024-01-30T10:25:13;4.10;;;0.70;;
27225;SDS011;14732;51.074;3.788;2024-01-30T10:27:39;4.32;;;0.60;;
27225;SDS011;14732;51.074;3.788;2024-01-30T10:30:05;1.30;;;0.50;;
27225;SDS011;14732;51.074;3.788;2024-01-30T10:32:32;2.42;;;0.60;;
27225;SDS011;14732;51.074;3.788;2024-01-30T10:34:57;3.60;;;0.75;;
27225;SDS011;14732;51.074;3.788;2024-01-30T10:37:24;3.00;;;0.65;;
27225;SDS011;14732;51.074;3.788;2024-01-30T10:39:50;3.28;;;0.60;;
27225;SDS011;14732;51.074;3.788;2024-01-30T10:42:20;4.70;;;0.70;;
27225;SDS011;14732;51.074;3.788;2024-01-30T10:47:33;3.03;;;0.80;;
27225;SDS011;14732;51.074;3.788;2024-01-30T10:50:01;3.40;;;0.80;;
27225;SDS011;14732;51.074;3.788;2024-01-30T10:52:28;4.30;;;1.15;;
27225;SDS011;14732;51.074;3.788;2024-01-30T10:54:55;2.67;;;0.90;;
27225;SDS011;14732;51.074;3.788;2024-01-30T10:57:24;3.33;;;1.10;;
27225;SDS011;14732;51.074;3.788;2024-01-30T10:59:52;3.55;;;0.93;;
27225;SDS011;14732;51.074;3.788;2024-01-30T11:02:21;2.15;;;0.82;;
27225;SDS011;14732;51.074;3.788;2024-01-30T11:07:24;4.72;;;1.08;;
27225;SDS011;14732;51.074;3.788;2024-01-30T11:12:23;3.70;;;1.38;;
27225;SDS011;14732;51.074;3.788;2024-01-30T11:14:50;3.38;;;1.10;;
27225;SDS011;14732;51.074;3.788;2024-01-30T11:22:42;4.03;;;1.35;;
27225;SDS011;14732;51.074;3.788;2024-01-30T11:25:16;3.65;;;1.17;;
27225;SDS011;14732;51.074;3.788;2024-01-30T11:27:45;5.53;;;1.10;;
27225;SDS011;14732;51.074;3.788;2024-01-30T11:30:20;6.10;;;1.10;;
27225;SDS011;14732;51.074;3.788;2024-01-30T11:35:45;8.38;;;1.35;;
27225;SDS011;14732;51.074;3.788;2024-01-30T11:38:13;6.28;;;1.17;;
27225;SDS011;14732;51.074;3.788;2024-01-30T11:40:39;6.50;;;0.98;;
27225;SDS011;14732;51.074;3.788;2024-01-30T11:43:06;7.65;;;1.10;;
27225;SDS011;14732;51.074;3.788;2024-01-30T11:45:32;5.35;;;1.05;;
27225;SDS011;14732;51.074;3.788;2024-01-30T11:47:59;7.05;;;1.30;;
27225;SDS011;14732;51.074;3.788;2024-01-30T11:50:26;7.20;;;1.92;;
27225;SDS011;14732;51.074;3.788;2024-01-30T11:52:53;7.75;;;1.30;;
27225;SDS011;14732;51.074;3.788;2024-01-30T11:55:20;3.28;;;0.90;;
27225;SDS011;14732;51.074;3.788;2024-01-30T11:57:45;5.53;;;1.20;;
27225;SDS011;14732;51.074;3.788;2024-01-30T12:00:14;3.28;;;1.10;;
27225;SDS011;14732;51.074;3.788;2024-01-30T12:02:42;3.88;;;1.10;;
27225;SDS011;14732;51.074;3.788;2024-01-30T12:05:08;4.85;;;1.20;;
27225;SDS011;14732;51.074;3.788;2024-01-30T12:07:34;5.93;;;1.42;;
27225;SDS011;14732;51.074;3.788;2024-01-30T12:10:00;2.78;;;1.20;;
27225;SDS011;14732;51.074;3.788;2024-01-30T12:12:27;3.55;;;1.15;;
27225;SDS011;14732;51.074;3.788;2024-01-30T12:14:53;5.05;;;0.90;;
27225;SDS011;14732;51.074;3.788;2024-01-30T12:17:26;3.13;;;0.80;;
27225;SDS011;14732;51.074;3.788;2024-01-30T12:20:08;5.00;;;1.00;;
27225;SDS011;14732;51.074;3.788;2024-01-30T12:22:41;3.22;;;0.77;;
27225;SDS011;14732;51.074;3.788;2024-01-30T12:25:11;4.93;;;0.90;;
27225;SDS011;14732;51.074;3.788;2024-01-30T12:27:45;4.97;;;0.70;;
27225;SDS011;14732;51.074;3.788;2024-01-30T12:30:12;2.85;;;0.80;;
27225;SDS011;14732;51.074;3.788;2024-01-30T12:32:39;5.00;;;0.80;;
27225;SDS011;14732;51.074;3.788;2024-01-30T12:35:13;6.80;;;0.85;;
27225;SDS011;14732;51.074;3.788;2024-01-30T12:37:40;2.00;;;0.60;;
27225;SDS011;14732;51.074;3.788;2024-01-30T12:40:07;6.97;;;1.17;;
27225;SDS011;14732;51.074;3.788;2024-01-30T12:42:34;7.30;;;0.85;;
27225;SDS011;14732;51.074;3.788;2024-01-30T12:45:01;3.55;;;0.65;;
27225;SDS011;14732;51.074;3.788;2024-01-30T12:47:29;3.47;;;0.83;;
27225;SDS011;14732;51.074;3.788;2024-01-30T12:49:55;3.17;;;0.90;;
27225;SDS011;14732;51.074;3.788;2024-01-30T12:52:21;3.83;;;1.10;;
27225;SDS011;14732;51.074;3.788;2024-01-30T12:54:47;2.92;;;0.60;;
27225;SDS011;14732;51.074;3.788;2024-01-30T12:57:13;3.60;;;0.80;;
27225;SDS011;14732;51.074;3.788;2024-01-30T12:59:39;4.35;;;0.80;;
27225;SDS011;14732;51.074;3.788;2024-01-30T13:02:05;2.47;;;0.73;;
27225;SDS011;14732;51.074;3.788;2024-01-30T13:04:31;3.40;;;0.90;;
27225;SDS011;14732;51.074;3.788;2024-01-30T13:06:57;3.28;;;0.80;;
27225;SDS011;14732;51.074;3.788;2024-01-30T13:09:25;3.42;;;0.73;;
27225;SDS011;14732;51.074;3.788;2024-01-30T13:11:51;4.07;;;0.80;;
27225;SDS011;14732;51.074;3.788;2024-01-30T13:14:17;6.50;;;0.80;;
27225;SDS011;14732;51.074;3.788;2024-01-30T13:16:43;2.53;;;0.80;;
27225;SDS011;14732;51.074;3.788;2024-01-30T13:19:09;3.53;;;0.85;;
27225;SDS011;14732;51.074;3.788;2024-01-30T13:21:34;5.03;;;0.80;;
27225;SDS011;14732;51.074;3.788;2024-01-30T13:24:00;2.35;;;0.70;;
27225;SDS011;14732;51.074;3.788;2024-01-30T13:26:26;7.13;;;1.15;;
27225;SDS011;14732;51.074;3.788;2024-01-30T13:28:51;5.13;;;1.00;;
27225;SDS011;14732;51.074;3.788;2024-01-30T13:31:17;6.20;;;0.95;;
27225;SDS011;14732;51.074;3.788;2024-01-30T13:33:44;5.78;;;0.90;;
27225;SDS011;14732;51.074;3.788;2024-01-30T13:36:10;6.38;;;1.00;;
27225;SDS011;14732;51.074;3.788;2024-01-30T13:38:36;4.60;;;0.85;;
27225;SDS011;14732;51.074;3.788;2024-01-30T13:41:02;9.27;;;1.00;;
27225;SDS011;14732;51.074;3.788;2024-01-30T13:43:28;6.63;;;0.88;;
27225;SDS011;14732;51.074;3.788;2024-01-30T13:45:54;5.10;;;1.20;;
27225;SDS011;14732;51.074;3.788;2024-01-30T13:48:20;4.78;;;1.35;;
27225;SDS011;14732;51.074;3.788;2024-01-30T13:50:46;4.30;;;1.17;;
27225;SDS011;14732;51.074;3.788;2024-01-30T13:53:12;10.60;;;1.13;;
27225;SDS011;14732;51.074;3.788;2024-01-30T13:55:38;7.05;;;0.98;;
27225;SDS011;14732;51.074;3.788;2024-01-30T13:58:04;5.35;;;1.20;;
27225;SDS011;14732;51.074;3.788;2024-01-30T14:00:30;5.75;;;1.10;;
27225;SDS011;14732;51.074;3.788;2024-01-30T14:02:56;6.22;;;1.00;;
27225;SDS011;14732;51.074;3.788;2024-01-30T14:05:23;5.10;;;1.00;;
27225;SDS011;14732;51.074;3.788;2024-01-30T14:07:50;7.75;;;1.27;;
27225;SDS011;14732;51.074;3.788;2024-01-30T14:10:16;4.78;;;1.73;;
27225;SDS011;14732;51.074;3.788;2024-01-30T14:12:42;8.48;;;1.15;;
27225;SDS011;14732;51.074;3.788;2024-01-30T14:15:09;5.35;;;1.15;;
27225;SDS011;14732;51.074;3.788;2024-01-30T14:17:36;8.13;;;1.23;;
27225;SDS011;14732;51.074;3.788;2024-01-30T14:20:05;5.38;;;1.10;;
27225;SDS011;14732;51.074;3.788;2024-01-30T14:22:32;5.03;;;1.33;;
27225;SDS011;14732;51.074;3.788;2024-01-30T14:24:59;3.72;;;1.55;;
27225;SDS011;14732;51.074;3.788;2024-01-30T14:27:30;1.98;;;1.33;;
27225;SDS011;14732;51.074;3.788;2024-01-30T14:29:57;7.40;;;1.58;;
27225;SDS011;14732;51.074;3.788;2024-01-30T14:32:23;8.13;;;1.52;;
27225;SDS011;14732;51.074;3.788;2024-01-30T14:34:49;7.07;;;1.70;;
27225;SDS011;14732;51.074;3.788;2024-01-30T14:37:18;7.60;;;1.70;;
27225;SDS011;14732;51.074;3.788;2024-01-30T14:39:45;5.60;;;2.10;;
27225;SDS011;14732;51.074;3.788;2024-01-30T14:42:10;6.65;;;2.00;;
27225;SDS011;14732;51.074;3.788;2024-01-30T14:44:36;6.45;;;2.05;;
27225;SDS011;14732;51.074;3.788;2024-01-30T14:47:02;13.00;;;2.10;;
27225;SDS011;14732;51.074;3.788;2024-01-30T14:49:28;4.75;;;1.80;;
27225;SDS011;14732;51.074;3.788;2024-01-30T14:51:53;6.43;;;1.77;;